sensor_id;sensor_type;location;lat;lon;timestamp;pressure;altitude;pressure_sealevel;temperature;humidity
65716;BME280;63484;52.054;8.518;2023-07-28T00:04:21;99463.97;;;17.88;100.00
65716;BME280;63484;52.054;8.518;2023-07-28T00:09:22;99453.34;;;17.88;100.00
65716;BME280;63484;52.054;8.518;2023-07-28T00:14:25;99452.16;;;17.90;100.00
65716;BME280;63484;52.054;8.518;2023-07-28T00:19:27;99440.03;;;17.80;100.00
65716;BME280;63484;52.054;8.518;2023-07-28T00:24:28;99444.03;;;17.76;100.00
65716;BME280;63484;52.054;8.518;2023-07-28T00:29:33;99451.19;;;17.75;100.00
65716;BME280;63484;52.054;8.518;2023-07-28T00:34:36;99448.34;;;17.77;100.00
65716;BME280;63484;52.054;8.518;2023-07-28T00:39:37;99443.03;;;17.77;100.00
65716;BME280;63484;52.054;8.518;2023-07-28T00:44:40;99452.34;;;17.73;100.00
65716;BME280;63484;52.054;8.518;2023-07-28T00:49:42;99446.03;;;17.74;100.00
65716;BME280;63484;52.054;8.518;2023-07-28T00:54:44;99450.22;;;17.68;100.00
65716;BME280;63484;52.054;8.518;2023-07-28T00:59:46;99455.34;;;17.70;100.00
65716;BME280;63484;52.054;8.518;2023-07-28T01:04:48;99469.47;;;17.70;100.00
65716;BME280;63484;52.054;8.518;2023-07-28T01:09:50;99462.50;;;17.69;100.00
65716;BME280;63484;52.054;8.518;2023-07-28T01:14:54;99467.81;;;17.69;100.00
65716;BME280;63484;52.054;8.518;2023-07-28T01:19:56;99471.31;;;17.70;100.00
65716;BME280;63484;52.054;8.518;2023-07-28T01:25:03;99469.63;;;17.69;100.00
65716;BME280;63484;52.054;8.518;2023-07-28T01:30:09;99480.44;;;17.67;100.00
65716;BME280;63484;52.054;8.518;2023-07-28T01:35:10;99480.25;;;17.69;100.00
65716;BME280;63484;52.054;8.518;2023-07-28T01:40:12;99476.63;;;17.70;100.00
65716;BME280;63484;52.054;8.518;2023-07-28T01:45:15;99475.13;;;17.67;100.00
65716;BME280;63484;52.054;8.518;2023-07-28T01:50:16;99479.47;;;17.68;100.00
65716;BME280;63484;52.054;8.518;2023-07-28T01:55:18;99482.28;;;17.67;100.00
65716;BME280;63484;52.054;8.518;2023-07-28T02:00:21;99474.13;;;17.68;100.00
65716;BME280;63484;52.054;8.518;2023-07-28T02:05:23;99473.28;;;17.68;100.00
65716;BME280;63484;52.054;8.518;2023-07-28T02:10:25;99469.97;;;17.66;100.00
65716;BME280;63484;52.054;8.518;2023-07-28T02:15:28;99466.47;;;17.65;100.00
65716;BME280;63484;52.054;8.518;2023-07-28T02:20:30;99466.63;;;17.64;100.00
65716;BME280;63484;52.054;8.518;2023-07-28T02:25:33;99473.63;;;17.65;100.00
65716;BME280;63484;52.054;8.518;2023-07-28T02:30:36;99476.47;;;17.63;100.00
65716;BME280;63484;52.054;8.518;2023-07-28T02:35:40;99480.09;;;17.62;100.00
65716;BME280;63484;52.054;8.518;2023-07-28T02:40:43;99478.44;;;17.61;100.00
65716;BME280;63484;52.054;8.518;2023-07-28T02:45:48;99475.63;;;17.63;100.00
65716;BME280;63484;52.054;8.518;2023-07-28T02:50:54;99488.91;;;17.63;100.00
65716;BME280;63484;52.054;8.518;2023-07-28T02:55:56;99488.25;;;17.61;100.00
65716;BME280;63484;52.054;8.518;2023-07-28T03:00:59;99485.59;;;17.61;100.00
65716;BME280;63484;52.054;8.518;2023-07-28T03:06:08;99494.06;;;17.64;100.00
65716;BME280;63484;52.054;8.518;2023-07-28T03:11:11;99501.88;;;17.66;100.00
65716;BME280;63484;52.054;8.518;2023-07-28T03:16:14;99513.50;;;17.65;100.00
65716;BME280;63484;52.054;8.518;2023-07-28T03:21:16;99506.34;;;17.65;100.00
65716;BME280;63484;52.054;8.518;2023-07-28T03:26:17;99502.22;;;17.63;100.00
65716;BME280;63484;52.054;8.518;2023-07-28T03:31:22;99505.88;;;17.62;100.00
65716;BME280;63484;52.054;8.518;2023-07-28T03:36:24;99505.72;;;17.63;100.00
65716;BME280;63484;52.054;8.518;2023-07-28T03:41:25;99514.16;;;17.59;100.00
65716;BME280;63484;52.054;8.518;2023-07-28T03:46:28;99518.16;;;17.63;100.00
65716;BME280;63484;52.054;8.518;2023-07-28T03:51:30;99519.97;;;17.62;100.00
65716;BME280;63484;52.054;8.518;2023-07-28T03:56:31;99519.00;;;17.63;100.00
65716;BME280;63484;52.054;8.518;2023-07-28T04:01:34;99518.84;;;17.65;100.00
65716;BME280;63484;52.054;8.518;2023-07-28T04:06:39;99514.31;;;17.65;100.00
65716;BME280;63484;52.054;8.518;2023-07-28T04:11:42;99517.50;;;17.69;100.00
65716;BME280;63484;52.054;8.518;2023-07-28T04:16:44;99528.13;;;17.69;100.00
65716;BME280;63484;52.054;8.518;2023-07-28T04:21:47;99522.47;;;17.72;100.00
65716;BME280;63484;52.054;8.518;2023-07-28T04:26:50;99522.00;;;17.76;100.00
65716;BME280;63484;52.054;8.518;2023-07-28T04:31:54;99523.31;;;17.72;100.00
65716;BME280;63484;52.054;8.518;2023-07-28T04:37:02;99527.13;;;17.78;100.00
65716;BME280;63484;52.054;8.518;2023-07-28T04:42:15;99527.94;;;17.78;100.00
65716;BME280;63484;52.054;8.518;2023-07-28T04:47:21;99549.22;;;17.78;100.00
65716;BME280;63484;52.054;8.518;2023-07-28T04:52:23;99542.09;;;17.79;100.00
65716;BME280;63484;52.054;8.518;2023-07-28T04:57:43;99538.75;;;17.85;100.00
65716;BME280;63484;52.054;8.518;2023-07-28T05:02:46;99537.44;;;17.89;100.00
65716;BME280;63484;52.054;8.518;2023-07-28T05:07:48;99528.44;;;17.98;100.00
65716;BME280;63484;52.054;8.518;2023-07-28T05:12:49;99540.41;;;18.02;100.00
65716;BME280;63484;52.054;8.518;2023-07-28T05:17:52;99539.56;;;18.10;100.00
65716;BME280;63484;52.054;8.518;2023-07-28T05:23:12;99540.91;;;18.14;100.00
65716;BME280;63484;52.054;8.518;2023-07-28T05:28:14;99554.88;;;18.24;100.00
65716;BME280;63484;52.054;8.518;2023-07-28T05:33:18;99545.00;;;18.32;100.00
65716;BME280;63484;52.054;8.518;2023-07-28T05:38:22;99554.69;;;18.41;100.00
65716;BME280;63484;52.054;8.518;2023-07-28T05:43:24;99570.13;;;18.38;100.00
65716;BME280;63484;52.054;8.518;2023-07-28T05:48:29;99572.97;;;18.44;100.00
65716;BME280;63484;52.054;8.518;2023-07-28T05:53:31;99571.97;;;18.45;100.00
65716;BME280;63484;52.054;8.518;2023-07-28T05:58:37;99577.75;;;18.57;100.00
65716;BME280;63484;52.054;8.518;2023-07-28T06:03:42;99574.94;;;18.58;100.00
65716;BME280;63484;52.054;8.518;2023-07-28T06:08:50;99577.41;;;18.60;100.00
65716;BME280;63484;52.054;8.518;2023-07-28T06:13:51;99588.94;;;18.52;100.00
65716;BME280;63484;52.054;8.518;2023-07-28T06:18:54;99590.94;;;18.50;100.00
65716;BME280;63484;52.054;8.518;2023-07-28T06:23:57;99597.59;;;18.54;100.00
65716;BME280;63484;52.054;8.518;2023-07-28T06:29:01;99603.25;;;18.59;100.00
65716;BME280;63484;52.054;8.518;2023-07-28T06:34:04;99619.19;;;18.67;100.00
65716;BME280;63484;52.054;8.518;2023-07-28T06:39:05;99616.19;;;18.70;100.00
65716;BME280;63484;52.054;8.518;2023-07-28T06:44:07;99620.50;;;18.71;100.00
65716;BME280;63484;52.054;8.518;2023-07-28T06:49:10;99627.13;;;18.91;100.00
65716;BME280;63484;52.054;8.518;2023-07-28T06:54:13;99635.03;;;19.07;100.00
65716;BME280;63484;52.054;8.518;2023-07-28T06:59:14;99632.47;;;19.30;100.00
65716;BME280;63484;52.054;8.518;2023-07-28T07:04:18;99632.22;;;19.48;100.00
65716;BME280;63484;52.054;8.518;2023-07-28T07:09:20;99646.78;;;19.68;100.00
65716;BME280;63484;52.054;8.518;2023-07-28T07:14:21;99652.59;;;19.71;100.00
65716;BME280;63484;52.054;8.518;2023-07-28T07:19:24;99661.81;;;19.61;100.00
65716;BME280;63484;52.054;8.518;2023-07-28T07:24:26;99661.59;;;19.40;100.00
65716;BME280;63484;52.054;8.518;2023-07-28T07:29:27;99662.78;;;19.37;100.00
65716;BME280;63484;52.054;8.518;2023-07-28T07:34:30;99667.16;;;19.61;100.00
65716;BME280;63484;52.054;8.518;2023-07-28T07:39:33;99677.19;;;20.04;100.00
65716;BME280;63484;52.054;8.518;2023-07-28T07:44:36;99664.47;;;20.88;97.49
65716;BME280;63484;52.054;8.518;2023-07-28T07:49:39;99677.97;;;20.72;97.53
65716;BME280;63484;52.054;8.518;2023-07-28T07:54:40;99689.25;;;20.82;97.53
65716;BME280;63484;52.054;8.518;2023-07-28T07:59:42;99690.56;;;21.59;92.63
65716;BME280;63484;52.054;8.518;2023-07-28T08:04:45;99692.75;;;24.71;75.42
65716;BME280;63484;52.054;8.518;2023-07-28T08:09:48;99689.41;;;24.23;74.21
65716;BME280;63484;52.054;8.518;2023-07-28T08:14:50;99695.91;;;23.06;79.66
65716;BME280;63484;52.054;8.518;2023-07-28T08:19:53;99705.84;;;23.94;77.09
65716;BME280;63484;52.054;8.518;2023-07-28T08:24:54;99691.38;;;23.41;79.09
65716;BME280;63484;52.054;8.518;2023-07-28T08:29:56;99696.97;;;23.93;76.91
65716;BME280;63484;52.054;8.518;2023-07-28T08:34:59;99686.16;;;24.86;73.55
65716;BME280;63484;52.054;8.518;2023-07-28T08:40:03;99699.56;;;25.12;70.53
65716;BME280;63484;52.054;8.518;2023-07-28T08:45:06;99713.56;;;24.03;74.70
65716;BME280;63484;52.054;8.518;2023-07-28T08:50:09;99716.88;;;23.24;79.79
65716;BME280;63484;52.054;8.518;2023-07-28T08:55:11;99726.31;;;23.20;79.43
65716;BME280;63484;52.054;8.518;2023-07-28T09:00:13;99731.41;;;23.83;76.91
65716;BME280;63484;52.054;8.518;2023-07-28T09:05:20;99727.13;;;23.42;77.80
65716;BME280;63484;52.054;8.518;2023-07-28T09:10:24;99743.56;;;22.56;83.28
65716;BME280;63484;52.054;8.518;2023-07-28T09:15:29;99742.03;;;23.23;80.87
65716;BME280;63484;52.054;8.518;2023-07-28T09:20:37;99750.03;;;24.64;74.57
65716;BME280;63484;52.054;8.518;2023-07-28T09:25:39;99750.91;;;24.85;71.97
65716;BME280;63484;52.054;8.518;2023-07-28T09:30:45;99748.34;;;24.24;75.74
65716;BME280;63484;52.054;8.518;2023-07-28T09:35:49;99746.22;;;23.60;76.36
65716;BME280;63484;52.054;8.518;2023-07-28T09:40:51;99751.88;;;23.78;76.37
65716;BME280;63484;52.054;8.518;2023-07-28T09:45:52;99761.19;;;23.88;78.25
65716;BME280;63484;52.054;8.518;2023-07-28T09:50:56;99760.72;;;24.19;75.60
65716;BME280;63484;52.054;8.518;2023-07-28T09:55:59;99767.56;;;24.21;73.47
65716;BME280;63484;52.054;8.518;2023-07-28T10:01:02;99775.34;;;24.70;73.48
65716;BME280;63484;52.054;8.518;2023-07-28T10:06:07;99770.75;;;24.71;71.86
65716;BME280;63484;52.054;8.518;2023-07-28T10:11:08;99779.53;;;23.38;77.20
65716;BME280;63484;52.054;8.518;2023-07-28T10:16:13;99778.41;;;22.56;79.83
65716;BME280;63484;52.054;8.518;2023-07-28T10:21:16;99779.91;;;22.44;80.83
65716;BME280;63484;52.054;8.518;2023-07-28T10:26:28;99784.63;;;23.05;82.77
65716;BME280;63484;52.054;8.518;2023-07-28T10:31:31;99782.72;;;23.95;76.07
65716;BME280;63484;52.054;8.518;2023-07-28T10:36:34;99793.44;;;23.88;76.88
65716;BME280;63484;52.054;8.518;2023-07-28T10:41:36;99798.97;;;23.80;75.56
65716;BME280;63484;52.054;8.518;2023-07-28T10:46:38;99812.16;;;22.92;79.54
65716;BME280;63484;52.054;8.518;2023-07-28T10:51:40;99812.63;;;22.39;85.54
65716;BME280;63484;52.054;8.518;2023-07-28T10:56:42;99810.88;;;22.46;88.31
65716;BME280;63484;52.054;8.518;2023-07-28T11:01:43;99816.06;;;22.90;83.99
65716;BME280;63484;52.054;8.518;2023-07-28T11:06:47;99812.16;;;22.92;85.46
65716;BME280;63484;52.054;8.518;2023-07-28T11:11:49;99811.19;;;23.21;84.88
65716;BME280;63484;52.054;8.518;2023-07-28T11:16:51;99803.53;;;23.86;78.70
65716;BME280;63484;52.054;8.518;2023-07-28T11:21:54;99809.16;;;24.38;75.63
65716;BME280;63484;52.054;8.518;2023-07-28T11:26:56;99798.13;;;24.20;76.00
65716;BME280;63484;52.054;8.518;2023-07-28T11:32:00;99783.63;;;24.08;76.57
65716;BME280;63484;52.054;8.518;2023-07-28T11:37:06;99788.41;;;24.19;76.05
65716;BME280;63484;52.054;8.518;2023-07-28T11:42:09;99799.97;;;24.93;72.51
65716;BME280;63484;52.054;8.518;2023-07-28T11:47:16;99804.31;;;25.53;69.08
65716;BME280;63484;52.054;8.518;2023-07-28T11:52:19;99804.09;;;25.28;69.96
65716;BME280;63484;52.054;8.518;2023-07-28T11:57:21;99809.06;;;24.86;70.32
65716;BME280;63484;52.054;8.518;2023-07-28T12:02:26;99796.94;;;24.36;72.34
65716;BME280;63484;52.054;8.518;2023-07-28T12:07:29;99811.97;;;24.91;70.67
65716;BME280;63484;52.054;8.518;2023-07-28T12:12:31;99811.66;;;24.53;70.65
65716;BME280;63484;52.054;8.518;2023-07-28T12:17:34;99809.16;;;24.45;71.51
65716;BME280;63484;52.054;8.518;2023-07-28T12:22:38;99810.31;;;24.96;68.88
65716;BME280;63484;52.054;8.518;2023-07-28T12:27:39;99825.50;;;24.43;71.17
65716;BME280;63484;52.054;8.518;2023-07-28T12:32:42;99815.94;;;24.21;73.51
65716;BME280;63484;52.054;8.518;2023-07-28T12:37:44;99810.50;;;24.69;70.48
65716;BME280;63484;52.054;8.518;2023-07-28T12:42:48;99800.97;;;24.73;71.13
65716;BME280;63484;52.054;8.518;2023-07-28T12:47:50;99800.16;;;25.18;70.43
65716;BME280;63484;52.054;8.518;2023-07-28T12:52:55;99799.56;;;24.96;69.68
65716;BME280;63484;52.054;8.518;2023-07-28T12:57:56;99801.41;;;24.76;68.79
65716;BME280;63484;52.054;8.518;2023-07-28T13:03:00;99793.34;;;25.22;67.25
65716;BME280;63484;52.054;8.518;2023-07-28T13:08:05;99802.00;;;25.63;63.21
65716;BME280;63484;52.054;8.518;2023-07-28T13:13:06;99806.16;;;25.33;64.88
65716;BME280;63484;52.054;8.518;2023-07-28T13:18:08;99805.75;;;25.36;63.64
65716;BME280;63484;52.054;8.518;2023-07-28T13:23:10;99806.56;;;25.30;63.98
65716;BME280;63484;52.054;8.518;2023-07-28T13:28:12;99802.59;;;25.71;63.03
65716;BME280;63484;52.054;8.518;2023-07-28T13:33:14;99797.59;;;25.75;62.24
65716;BME280;63484;52.054;8.518;2023-07-28T13:38:17;99783.63;;;26.04;62.36
65716;BME280;63484;52.054;8.518;2023-07-28T13:43:19;99790.34;;;25.82;63.58
65716;BME280;63484;52.054;8.518;2023-07-28T13:48:20;99789.53;;;25.75;62.88
65716;BME280;63484;52.054;8.518;2023-07-28T13:53:23;99787.41;;;26.41;62.12
65716;BME280;63484;52.054;8.518;2023-07-28T13:58:25;99785.59;;;26.59;61.81
65716;BME280;63484;52.054;8.518;2023-07-28T14:03:26;99774.97;;;26.71;61.53
65716;BME280;63484;52.054;8.518;2023-07-28T14:08:29;99792.66;;;26.91;58.79
65716;BME280;63484;52.054;8.518;2023-07-28T14:13:32;99777.53;;;26.90;59.88
65716;BME280;63484;52.054;8.518;2023-07-28T14:18:34;99772.91;;;26.73;58.71
65716;BME280;63484;52.054;8.518;2023-07-28T14:23:37;99765.38;;;26.06;61.18
65716;BME280;63484;52.054;8.518;2023-07-28T14:28:38;99766.72;;;26.66;60.53
65716;BME280;63484;52.054;8.518;2023-07-28T14:33:40;99768.66;;;26.83;59.23
65716;BME280;63484;52.054;8.518;2023-07-28T14:38:42;99772.44;;;26.76;58.95
65716;BME280;63484;52.054;8.518;2023-07-28T14:43:46;99767.22;;;26.12;61.71
65716;BME280;63484;52.054;8.518;2023-07-28T14:48:50;99773.94;;;25.90;62.33
65716;BME280;63484;52.054;8.518;2023-07-28T14:53:53;99761.53;;;26.27;61.49
65716;BME280;63484;52.054;8.518;2023-07-28T14:58:57;99762.00;;;26.17;60.90
65716;BME280;63484;52.054;8.518;2023-07-28T15:04:01;99756.56;;;26.24;60.00
65716;BME280;63484;52.054;8.518;2023-07-28T15:09:05;99755.59;;;26.49;61.34
65716;BME280;63484;52.054;8.518;2023-07-28T15:14:07;99750.44;;;26.41;60.65
65716;BME280;63484;52.054;8.518;2023-07-28T15:19:08;99753.69;;;26.56;60.17
65716;BME280;63484;52.054;8.518;2023-07-28T15:24:11;99755.94;;;26.28;60.16
65716;BME280;63484;52.054;8.518;2023-07-28T15:29:15;99750.44;;;26.41;60.94
65716;BME280;63484;52.054;8.518;2023-07-28T15:34:16;99751.16;;;26.61;60.78
65716;BME280;63484;52.054;8.518;2023-07-28T15:39:19;99745.53;;;26.69;61.45
65716;BME280;63484;52.054;8.518;2023-07-28T15:44:21;99751.63;;;26.21;61.21
65716;BME280;63484;52.054;8.518;2023-07-28T15:49:24;99749.50;;;25.85;63.26
65716;BME280;63484;52.054;8.518;2023-07-28T15:54:29;99757.38;;;25.80;63.04
65716;BME280;63484;52.054;8.518;2023-07-28T15:59:31;99752.69;;;26.20;60.68
65716;BME280;63484;52.054;8.518;2023-07-28T16:04:32;99744.66;;;26.00;62.13
65716;BME280;63484;52.054;8.518;2023-07-28T16:09:38;99745.34;;;25.82;62.21
65716;BME280;63484;52.054;8.518;2023-07-28T16:14:40;99747.63;;;25.85;61.48
65716;BME280;63484;52.054;8.518;2023-07-28T16:19:42;99743.56;;;25.63;61.18
65716;BME280;63484;52.054;8.518;2023-07-28T16:24:44;99746.59;;;25.80;62.88
65716;BME280;63484;52.054;8.518;2023-07-28T16:29:46;99751.63;;;26.21;60.31
65716;BME280;63484;52.054;8.518;2023-07-28T16:34:48;99744.63;;;26.13;60.64
65716;BME280;63484;52.054;8.518;2023-07-28T16:39:51;99740.94;;;26.01;59.33
65716;BME280;63484;52.054;8.518;2023-07-28T16:44:52;99741.41;;;25.85;59.42
65716;BME280;63484;52.054;8.518;2023-07-28T16:49:54;99744.38;;;25.64;61.86
65716;BME280;63484;52.054;8.518;2023-07-28T16:54:59;99746.28;;;25.50;61.30
65716;BME280;63484;52.054;8.518;2023-07-28T17:00:00;99743.41;;;25.32;62.56
65716;BME280;63484;52.054;8.518;2023-07-28T17:05:02;99743.84;;;25.10;62.15
65716;BME280;63484;52.054;8.518;2023-07-28T17:10:05;99747.38;;;25.04;61.76
65716;BME280;63484;52.054;8.518;2023-07-28T17:15:07;99744.06;;;25.08;61.39
65716;BME280;63484;52.054;8.518;2023-07-28T17:20:09;99753.41;;;24.99;60.88
65716;BME280;63484;52.054;8.518;2023-07-28T17:25:12;99752.34;;;25.07;61.25
65716;BME280;63484;52.054;8.518;2023-07-28T17:30:14;99745.97;;;24.95;63.20
65716;BME280;63484;52.054;8.518;2023-07-28T17:35:15;99737.25;;;24.80;63.46
65716;BME280;63484;52.054;8.518;2023-07-28T17:40:20;99741.16;;;24.57;65.17
65716;BME280;63484;52.054;8.518;2023-07-28T17:45:22;99741.16;;;24.44;65.79
65716;BME280;63484;52.054;8.518;2023-07-28T17:50:23;99749.97;;;24.19;65.90
65716;BME280;63484;52.054;8.518;2023-07-28T17:55:28;99745.09;;;23.88;67.22
65716;BME280;63484;52.054;8.518;2023-07-28T18:00:29;99760.69;;;23.72;68.41
65716;BME280;63484;52.054;8.518;2023-07-28T18:05:31;99754.91;;;23.62;69.17
65716;BME280;63484;52.054;8.518;2023-07-28T18:10:34;99757.97;;;23.59;70.44
65716;BME280;63484;52.054;8.518;2023-07-28T18:15:38;99751.97;;;23.57;70.35
65716;BME280;63484;52.054;8.518;2023-07-28T18:20:40;99748.69;;;23.61;70.87
65716;BME280;63484;52.054;8.518;2023-07-28T18:25:43;99758.78;;;23.59;71.62
65716;BME280;63484;52.054;8.518;2023-07-28T18:30:44;99751.31;;;23.48;71.97
65716;BME280;63484;52.054;8.518;2023-07-28T18:35:46;99753.50;;;23.38;72.83
65716;BME280;63484;52.054;8.518;2023-07-28T18:40:48;99764.53;;;23.22;74.37
65716;BME280;63484;52.054;8.518;2023-07-28T18:45:50;99777.06;;;23.15;75.19
65716;BME280;63484;52.054;8.518;2023-07-28T18:50:51;99783.75;;;22.98;77.03
65716;BME280;63484;52.054;8.518;2023-07-28T18:55:54;99793.47;;;22.78;78.81
65716;BME280;63484;52.054;8.518;2023-07-28T19:00:56;99802.47;;;22.70;79.38
65716;BME280;63484;52.054;8.518;2023-07-28T19:05:59;99799.28;;;22.60;80.15
65716;BME280;63484;52.054;8.518;2023-07-28T19:11:02;99799.22;;;22.54;80.88
65716;BME280;63484;52.054;8.518;2023-07-28T19:16:05;99808.75;;;22.42;81.83
65716;BME280;63484;52.054;8.518;2023-07-28T19:21:06;99812.56;;;22.33;82.30
65716;BME280;63484;52.054;8.518;2023-07-28T19:26:09;99818.69;;;22.27;82.94
65716;BME280;63484;52.054;8.518;2023-07-28T19:31:13;99812.13;;;22.15;83.86
65716;BME280;63484;52.054;8.518;2023-07-28T19:36:14;99819.91;;;22.10;83.93
65716;BME280;63484;52.054;8.518;2023-07-28T19:41:18;99826.41;;;22.01;84.47
65716;BME280;63484;52.054;8.518;2023-07-28T19:46:21;99837.03;;;21.94;84.92
65716;BME280;63484;52.054;8.518;2023-07-28T19:51:24;99843.22;;;21.94;84.55
65716;BME280;63484;52.054;8.518;2023-07-28T19:56:27;99847.84;;;21.86;84.82
65716;BME280;63484;52.054;8.518;2023-07-28T20:01:29;99852.34;;;21.85;85.13
65716;BME280;63484;52.054;8.518;2023-07-28T20:06:31;99851.25;;;21.80;85.05
65716;BME280;63484;52.054;8.518;2023-07-28T20:11:33;99850.78;;;21.76;85.51
65716;BME280;63484;52.054;8.518;2023-07-28T20:16:37;99837.75;;;21.73;85.53
65716;BME280;63484;52.054;8.518;2023-07-28T20:21:38;99854.00;;;21.72;86.28
65716;BME280;63484;52.054;8.518;2023-07-28T20:26:41;99858.03;;;21.68;86.24
65716;BME280;63484;52.054;8.518;2023-07-28T20:31:43;99849.06;;;21.61;86.51
65716;BME280;63484;52.054;8.518;2023-07-28T20:36:44;99848.25;;;21.60;86.90
65716;BME280;63484;52.054;8.518;2023-07-28T20:41:50;99852.59;;;21.61;86.74
65716;BME280;63484;52.054;8.518;2023-07-28T20:46:51;99858.88;;;21.54;87.70
65716;BME280;63484;52.054;8.518;2023-07-28T20:51:53;99861.81;;;21.44;88.95
65716;BME280;63484;52.054;8.518;2023-07-28T20:56:56;99859.66;;;21.40;90.15
65716;BME280;63484;52.054;8.518;2023-07-28T21:01:57;99861.41;;;21.33;90.42
65716;BME280;63484;52.054;8.518;2023-07-28T21:07:01;99868.97;;;21.29;90.77
65716;BME280;63484;52.054;8.518;2023-07-28T21:12:04;99870.88;;;21.21;92.63
65716;BME280;63484;52.054;8.518;2023-07-28T21:17:08;99870.75;;;21.14;92.96
65716;BME280;63484;52.054;8.518;2023-07-28T21:22:10;99864.13;;;21.10;93.94
65716;BME280;63484;52.054;8.518;2023-07-28T21:27:12;99873.56;;;20.98;95.05
65716;BME280;63484;52.054;8.518;2023-07-28T21:32:16;99870.81;;;20.84;96.42
65716;BME280;63484;52.054;8.518;2023-07-28T21:37:17;99870.88;;;20.76;97.13
65716;BME280;63484;52.054;8.518;2023-07-28T21:42:20;99864.63;;;20.60;97.50
65716;BME280;63484;52.054;8.518;2023-07-28T21:47:22;99859.19;;;20.46;98.64
65716;BME280;63484;52.054;8.518;2023-07-28T21:52:23;99861.97;;;20.30;99.88
65716;BME280;63484;52.054;8.518;2023-07-28T21:57:26;99860.22;;;20.14;100.00
65716;BME280;63484;52.054;8.518;2023-07-28T22:02:29;99863.59;;;20.00;100.00
65716;BME280;63484;52.054;8.518;2023-07-28T22:07:31;99866.13;;;19.94;100.00
65716;BME280;63484;52.054;8.518;2023-07-28T22:12:34;99875.47;;;19.82;100.00
65716;BME280;63484;52.054;8.518;2023-07-28T22:17:36;99872.66;;;19.75;100.00
65716;BME280;63484;52.054;8.518;2023-07-28T22:22:37;99862.19;;;19.66;100.00
65716;BME280;63484;52.054;8.518;2023-07-28T22:27:40;99860.88;;;19.54;100.00
65716;BME280;63484;52.054;8.518;2023-07-28T22:32:42;99857.88;;;19.49;100.00
65716;BME280;63484;52.054;8.518;2023-07-28T22:37:45;99865.59;;;19.44;100.00
65716;BME280;63484;52.054;8.518;2023-07-28T22:42:48;99852.06;;;19.45;100.00
65716;BME280;63484;52.054;8.518;2023-07-28T22:47:49;99843.75;;;19.40;100.00
65716;BME280;63484;52.054;8.518;2023-07-28T22:52:53;99846.75;;;19.45;100.00
65716;BME280;63484;52.054;8.518;2023-07-28T22:57:56;99848.56;;;19.45;100.00
65716;BME280;63484;52.054;8.518;2023-07-28T23:02:58;99850.53;;;19.51;100.00
65716;BME280;63484;52.054;8.518;2023-07-28T23:08:00;99841.72;;;19.58;100.00
65716;BME280;63484;52.054;8.518;2023-07-28T23:13:03;99843.53;;;19.58;99.94
65716;BME280;63484;52.054;8.518;2023-07-28T23:18:05;99846.38;;;19.56;99.60
65716;BME280;63484;52.054;8.518;2023-07-28T23:23:07;99833.19;;;19.63;99.21
65716;BME280;63484;52.054;8.518;2023-07-28T23:28:10;99832.50;;;19.69;98.19
65716;BME280;63484;52.054;8.518;2023-07-28T23:33:14;99837.47;;;19.72;98.38
65716;BME280;63484;52.054;8.518;2023-07-28T23:38:15;99830.16;;;19.74;98.52
65716;BME280;63484;52.054;8.518;2023-07-28T23:43:18;99819.47;;;19.74;98.61
65716;BME280;63484;52.054;8.518;2023-07-28T23:48:19;99802.44;;;19.75;97.72
65716;BME280;63484;52.054;8.518;2023-07-28T23:53:21;99814.47;;;19.79;97.38
65716;BME280;63484;52.054;8.518;2023-07-28T23:58:26;99807.28;;;19.79;97.46
